Time;durP1;ratioP1;P1;durP2;ratioP2;P2;SDS_P1;SDS_P2;PMS_P1;PMS_P2;Temp;Humidity;BMP_temperature;BMP_pressure;BME280_temperature;BME280_humidity;BME280_pressure;Samples;Min_cycle;Max_cycle;Signal;HPM_P1;HPM_P2
2023/06/30 00:04:32;;;;;;;7.18;6.47;;;25.90;62.10;;;;;;4808406;54;21011;-38
2023/06/30 00:09:33;;;;;;;7.32;6.62;;;25.90;62.70;;;;;;4868434;54;21565;-38
2023/06/30 00:14:34;;;;;;;7.57;6.47;;;25.90;62.10;;;;;;4844242;54;21106;-37
2023/06/30 00:19:35;;;;;;;7.40;6.80;;;25.90;62.00;;;;;;4852703;54;21443;-36
2023/06/30 00:24:36;;;;;;;7.82;6.68;;;25.90;62.10;;;;;;4800582;54;21486;-38
2023/06/30 00:29:37;;;;;;;7.10;6.25;;;25.90;62.00;;;;;;4795892;58;21094;-38
2023/06/30 00:34:38;;;;;;;7.50;6.70;;;25.90;62.00;;;;;;4797938;54;21922;-35
2023/06/30 00:39:38;;;;;;;7.25;6.53;;;25.90;62.10;;;;;;4865747;54;21019;-38
2023/06/30 00:44:39;;;;;;;6.50;5.87;;;25.90;62.00;;;;;;4832041;54;21482;-36
2023/06/30 00:49:41;;;;;;;7.70;6.30;;;25.90;62.00;;;;;;4814421;54;21015;-36
2023/06/30 00:54:42;;;;;;;7.00;6.30;;;25.90;61.90;;;;;;4800270;54;21080;-35
2023/06/30 00:59:43;;;;;;;7.10;6.40;;;25.90;61.80;;;;;;4805375;54;21006;-35
2023/06/30 01:05:06;;;;;;;7.07;6.37;;;25.90;62.00;;;;;;4898269;54;21102;-39
2023/06/30 01:10:13;;;;;;;6.72;5.87;;;25.90;62.00;;;;;;4802877;54;21011;-36
2023/06/30 01:15:15;;;;;;;7.03;6.15;;;25.90;61.90;;;;;;4796746;58;21107;-36
2023/06/30 01:20:19;;;;;;;10.27;5.95;;;25.90;61.90;;;;;;4796651;58;21018;-36
2023/06/30 01:25:27;;;;;;;8.75;6.20;;;25.90;61.80;;;;;;4796634;55;21469;-34
2023/06/30 01:30:31;;;;;;;6.35;5.75;;;25.80;61.60;;;;;;4842861;54;21078;-33
2023/06/30 01:35:32;;;;;;;6.20;5.60;;;25.90;61.90;;;;;;4878085;54;21678;-36
2023/06/30 01:40:33;;;;;;;6.28;5.68;;;25.90;61.70;;;;;;4828928;54;21026;-36
2023/06/30 01:45:35;;;;;;;6.97;5.78;;;25.90;61.70;;;;;;4819883;54;21480;-35
2023/06/30 01:50:36;;;;;;;6.55;5.90;;;25.80;61.60;;;;;;4795908;58;21086;-36
2023/06/30 01:55:39;;;;;;;5.65;5.15;;;25.80;61.80;;;;;;4825757;54;20992;-38
2023/06/30 02:00:40;;;;;;;6.25;5.65;;;25.80;61.60;;;;;;4796685;58;21098;-36
2023/06/30 02:05:40;;;;;;;5.95;5.45;;;25.80;61.20;;;;;;4825437;54;21592;-36
2023/06/30 02:10:42;;;;;;;5.68;5.18;;;25.80;61.70;;;;;;4850257;53;21034;-38
2023/06/30 02:15:43;;;;;;;6.57;5.78;;;25.80;61.60;;;;;;4836918;54;21039;-36
2023/06/30 02:20:43;;;;;;;6.45;5.68;;;25.80;61.40;;;;;;4815576;54;21050;-36
2023/06/30 02:25:44;;;;;;;6.60;5.93;;;25.80;61.40;;;;;;4961295;54;21071;-36
2023/06/30 02:30:45;;;;;;;5.93;5.32;;;25.90;61.70;;;;;;4887843;54;21015;-36
2023/06/30 02:35:46;;;;;;;5.97;5.37;;;25.80;61.70;;;;;;4902281;54;21907;-35
2023/06/30 02:40:47;;;;;;;6.10;5.47;;;25.80;61.50;;;;;;4870189;54;21129;-39
2023/06/30 02:45:48;;;;;;;5.85;5.25;;;25.80;61.60;;;;;;4837651;54;21018;-34
2023/06/30 02:50:49;;;;;;;5.60;5.00;;;25.80;61.50;;;;;;4931414;54;21513;-37
2023/06/30 02:55:50;;;;;;;6.70;5.35;;;25.80;61.60;;;;;;4796535;58;21635;-36
2023/06/30 03:00:51;;;;;;;5.32;4.82;;;25.80;61.90;;;;;;4882818;54;21470;-37
2023/06/30 03:05:52;;;;;;;5.78;5.28;;;25.80;61.40;;;;;;4807260;54;21066;-38
2023/06/30 03:10:53;;;;;;;6.32;5.25;;;25.80;61.10;;;;;;4795992;58;21142;-37
2023/06/30 03:15:54;;;;;;;5.28;4.78;;;25.80;61.40;;;;;;4879915;54;21454;-36
2023/06/30 03:20:54;;;;;;;5.20;4.70;;;25.80;61.20;;;;;;4796311;58;21315;-36
2023/06/30 03:25:55;;;;;;;5.30;4.80;;;25.80;61.40;;;;;;4931109;54;21094;-37
2023/06/30 03:30:56;;;;;;;5.30;4.90;;;25.80;61.00;;;;;;4831584;54;21059;-36
2023/06/30 03:35:57;;;;;;;5.25;4.80;;;25.80;61.00;;;;;;4867682;54;21050;-35
2023/06/30 03:40:58;;;;;;;5.70;5.15;;;25.80;60.80;;;;;;4898662;54;21026;-36
2023/06/30 03:45:59;;;;;;;5.30;4.57;;;25.80;60.80;;;;;;4796693;58;21498;-38
2023/06/30 03:51:00;;;;;;;5.30;4.80;;;25.80;60.50;;;;;;4876101;54;21018;-36
2023/06/30 03:56:00;;;;;;;5.12;4.62;;;25.80;60.60;;;;;;4908923;54;21026;-35
2023/06/30 04:01:01;;;;;;;5.22;4.35;;;25.80;60.30;;;;;;4929644;54;21537;-37
2023/06/30 04:06:02;;;;;;;6.15;4.97;;;25.80;60.00;;;;;;4796763;58;21022;-37
2023/06/30 04:11:03;;;;;;;5.40;4.90;;;25.70;60.30;;;;;;4892428;54;21050;-36
2023/06/30 04:16:05;;;;;;;6.25;4.80;;;25.80;60.00;;;;;;4860697;54;21075;-37
2023/06/30 04:21:05;;;;;;;5.45;4.87;;;25.80;59.90;;;;;;4907720;54;21043;-38
2023/06/30 04:26:06;;;;;;;5.35;4.85;;;25.70;59.60;;;;;;4796770;58;21036;-37
2023/06/30 04:31:07;;;;;;;5.47;4.97;;;25.70;59.70;;;;;;4795905;58;21022;-38
2023/06/30 04:36:08;;;;;;;5.43;4.82;;;25.70;59.80;;;;;;4806026;54;21076;-38
2023/06/30 04:41:09;;;;;;;5.60;5.00;;;25.70;59.70;;;;;;4824485;54;21087;-37
2023/06/30 04:46:10;;;;;;;5.55;5.05;;;25.70;60.10;;;;;;4858999;54;21022;-38
2023/06/30 04:51:11;;;;;;;5.20;4.70;;;25.70;59.80;;;;;;4795727;58;21584;-39
2023/06/30 04:56:12;;;;;;;5.78;5.28;;;25.70;59.60;;;;;;4943425;54;21189;-39
2023/06/30 05:01:13;;;;;;;5.93;5.32;;;25.70;59.80;;;;;;4840903;54;21063;-38
2023/06/30 05:06:14;;;;;;;5.22;4.60;;;25.70;59.60;;;;;;4796308;58;21011;-36
2023/06/30 05:11:15;;;;;;;5.75;5.20;;;25.70;59.40;;;;;;4884761;54;21477;-37
2023/06/30 05:16:16;;;;;;;5.40;4.90;;;25.70;60.30;;;;;;4796893;58;21022;-37
2023/06/30 05:21:17;;;;;;;5.30;4.80;;;25.70;59.70;;;;;;4885649;54;21536;-37
2023/06/30 05:26:18;;;;;;;5.80;5.20;;;25.70;60.60;;;;;;4822889;54;21014;-37
2023/06/30 05:31:19;;;;;;;5.80;5.30;;;25.70;59.90;;;;;;4795874;58;21675;-37
2023/06/30 05:36:19;;;;;;;6.03;5.00;;;25.70;59.70;;;;;;4930926;54;21118;-39
2023/06/30 05:41:20;;;;;;;5.37;4.90;;;25.70;59.80;;;;;;4806574;54;21066;-38
2023/06/30 05:46:21;;;;;;;5.70;5.20;;;25.70;59.90;;;;;;4808386;54;21027;-35
2023/06/30 05:51:22;;;;;;;6.25;5.65;;;25.70;59.80;;;;;;4822145;54;21446;-37
2023/06/30 05:56:23;;;;;;;5.95;5.20;;;25.70;59.70;;;;;;4842585;53;21070;-37
2023/06/30 06:01:24;;;;;;;6.37;5.70;;;25.70;59.80;;;;;;4820840;54;21489;-38
2023/06/30 06:06:24;;;;;;;5.93;5.40;;;25.70;59.80;;;;;;4894172;54;21070;-37
2023/06/30 06:11:26;;;;;;;6.97;5.22;;;25.70;59.80;;;;;;4821240;54;21023;-37
2023/06/30 06:16:26;;;;;;;5.80;5.12;;;25.70;60.10;;;;;;4843586;54;21038;-37
2023/06/30 06:21:28;;;;;;;6.45;5.82;;;25.70;59.90;;;;;;4831067;54;21457;-37
2023/06/30 06:26:28;;;;;;;6.80;5.57;;;25.70;60.10;;;;;;4796342;58;20995;-37
2023/06/30 06:31:29;;;;;;;6.43;5.68;;;25.70;60.10;;;;;;4830083;54;21473;-38
2023/06/30 06:36:30;;;;;;;6.97;5.62;;;25.70;60.00;;;;;;4818614;54;21047;-38
2023/06/30 06:41:33;;;;;;;6.97;5.60;;;25.70;60.20;;;;;;4877637;54;21047;-39
2023/06/30 06:46:34;;;;;;;7.45;6.22;;;25.70;60.00;;;;;;4796658;58;21058;-38
2023/06/30 06:51:35;;;;;;;7.12;6.43;;;25.70;60.20;;;;;;4838928;54;21070;-37
2023/06/30 06:56:36;;;;;;;6.50;5.90;;;25.70;60.20;;;;;;4834624;54;21011;-36
2023/06/30 07:01:37;;;;;;;7.53;6.12;;;25.70;61.00;;;;;;4844363;54;21548;-38
2023/06/30 07:06:38;;;;;;;9.45;6.12;;;25.70;60.30;;;;;;4796257;55;21323;-38
2023/06/30 07:11:39;;;;;;;7.62;6.20;;;25.70;60.30;;;;;;4836761;54;21018;-38
2023/06/30 07:16:39;;;;;;;7.32;6.53;;;25.70;60.20;;;;;;4802753;54;21006;-39
2023/06/30 07:21:40;;;;;;;6.93;6.28;;;25.70;60.20;;;;;;4833893;54;21002;-36
2023/06/30 07:26:41;;;;;;;8.82;6.70;;;25.70;60.40;;;;;;4801939;54;21477;-36
2023/06/30 07:31:42;;;;;;;8.77;7.03;;;25.70;60.50;;;;;;4820545;54;21494;-37
2023/06/30 07:36:43;;;;;;;8.52;6.97;;;25.70;60.50;;;;;;4861853;54;21502;-37
2023/06/30 07:41:43;;;;;;;7.12;6.47;;;25.70;60.40;;;;;;4810954;54;21019;-37
2023/06/30 07:46:44;;;;;;;7.28;6.57;;;25.70;61.10;;;;;;4796130;58;21564;-38
2023/06/30 07:51:46;;;;;;;9.20;7.47;;;25.70;60.40;;;;;;4862241;54;21031;-34
2023/06/30 07:56:47;;;;;;;7.95;7.15;;;25.70;60.40;;;;;;4796381;58;21454;-37
2023/06/30 08:01:48;;;;;;;8.43;7.43;;;25.70;60.40;;;;;;4796358;58;21146;-39
2023/06/30 08:06:49;;;;;;;8.15;7.35;;;25.70;60.50;;;;;;4796684;58;21481;-39
2023/06/30 08:11:50;;;;;;;8.07;7.32;;;25.70;60.50;;;;;;4795353;55;21034;-36
2023/06/30 08:16:51;;;;;;;8.90;8.10;;;25.70;60.60;;;;;;4795503;55;21489;-37
2023/06/30 08:21:52;;;;;;;8.68;7.78;;;25.70;60.50;;;;;;4798974;54;21094;-37
2023/06/30 08:26:53;;;;;;;9.75;7.60;;;25.70;60.60;;;;;;4800564;54;21074;-37
2023/06/30 08:31:54;;;;;;;9.70;8.70;;;25.70;60.60;;;;;;4806177;54;21091;-39
2023/06/30 08:36:56;;;;;;;9.07;8.18;;;25.70;60.70;;;;;;4863622;53;21533;-38
2023/06/30 08:42:00;;;;;;;9.75;8.50;;;25.70;60.70;;;;;;4796411;58;20999;-37
2023/06/30 08:47:02;;;;;;;9.95;8.95;;;25.80;60.70;;;;;;4796454;58;21090;-39
2023/06/30 08:52:05;;;;;;;10.82;9.13;;;25.80;60.80;;;;;;4807920;54;21500;-38
2023/06/30 08:57:06;;;;;;;10.23;9.18;;;25.70;60.60;;;;;;4816338;54;20982;-36
2023/06/30 09:02:07;;;;;;;10.60;9.50;;;25.80;60.80;;;;;;4832432;54;21046;-39
2023/06/30 09:07:19;;;;;;;10.52;9.43;;;25.80;60.70;;;;;;4826725;54;21066;-36
2023/06/30 09:12:20;;;;;;;11.20;9.68;;;25.80;60.80;;;;;;4808353;54;21091;-37
2023/06/30 09:17:22;;;;;;;10.65;9.55;;;25.80;60.90;;;;;;4846052;54;21037;-38
2023/06/30 09:22:24;;;;;;;11.35;10.15;;;25.80;60.80;;;;;;4924821;54;20983;-36
2023/06/30 09:27:27;;;;;;;10.65;9.45;;;25.70;60.80;;;;;;4826213;54;20979;-36
2023/06/30 09:32:30;;;;;;;11.57;10.48;;;25.80;61.00;;;;;;4804349;54;21529;-37
2023/06/30 09:37:40;;;;;;;12.20;10.32;;;25.80;61.00;;;;;;4800867;54;21051;-38
2023/06/30 09:42:44;;;;;;;11.32;10.13;;;25.80;60.90;;;;;;5003471;53;21169;-39
2023/06/30 09:47:52;;;;;;;11.60;10.45;;;25.80;61.10;;;;;;5042303;54;20987;-37
2023/06/30 09:52:53;;;;;;;11.48;9.80;;;25.80;61.10;;;;;;4816709;54;20995;-38
2023/06/30 09:57:56;;;;;;;12.32;10.70;;;25.80;61.10;;;;;;4910251;54;21110;-34
2023/06/30 10:03:04;;;;;;;11.52;10.23;;;25.80;61.10;;;;;;4796233;58;21369;-37
2023/06/30 10:08:06;;;;;;;11.12;9.88;;;25.80;61.20;;;;;;4799735;54;21079;-37
2023/06/30 10:13:07;;;;;;;11.02;9.93;;;25.80;61.20;;;;;;4856942;54;20999;-33
2023/06/30 10:18:14;;;;;;;11.25;10.05;;;25.80;61.40;;;;;;4804683;54;21007;-38
2023/06/30 10:23:18;;;;;;;12.00;9.82;;;25.80;61.30;;;;;;4838318;53;21069;-36
2023/06/30 10:28:20;;;;;;;12.63;10.43;;;25.80;61.30;;;;;;4869230;54;21078;-38
2023/06/30 10:33:22;;;;;;;10.30;9.13;;;25.80;61.40;;;;;;4798136;54;21070;-37
2023/06/30 10:38:23;;;;;;;10.88;9.63;;;25.80;61.50;;;;;;4840380;54;21437;-34
2023/06/30 10:43:24;;;;;;;10.82;9.73;;;25.80;61.40;;;;;;4849075;54;21319;-36
2023/06/30 10:48:27;;;;;;;10.20;9.20;;;25.80;61.40;;;;;;4885993;54;21703;-38
2023/06/30 10:53:28;;;;;;;10.70;9.30;;;25.80;61.40;;;;;;4810423;54;21481;-40
2023/06/30 10:58:29;;;;;;;10.20;9.15;;;25.80;61.60;;;;;;4810609;54;21101;-32
2023/06/30 11:04:22;;;;;;;10.80;9.70;;;25.80;61.60;;;;;;5004987;54;21050;-39
2023/06/30 11:09:23;;;;;;;10.40;9.38;;;25.80;61.70;;;;;;4829417;54;21059;-39
2023/06/30 11:14:33;;;;;;;10.80;9.80;;;25.80;61.60;;;;;;4841205;54;20987;-38
2023/06/30 11:19:37;;;;;;;9.82;8.85;;;25.80;62.00;;;;;;4816396;54;21066;-38
2023/06/30 11:24:37;;;;;;;11.07;9.98;;;25.80;61.70;;;;;;4873134;54;21002;-38
2023/06/30 11:29:39;;;;;;;11.00;9.68;;;25.80;61.70;;;;;;4863016;54;20994;-37
2023/06/30 11:34:41;;;;;;;10.82;9.73;;;25.80;61.60;;;;;;4835940;53;21075;-38
2023/06/30 11:39:50;;;;;;;10.38;9.38;;;25.80;61.70;;;;;;4876726;54;21015;-38
2023/06/30 11:44:51;;;;;;;10.40;9.40;;;25.80;61.60;;;;;;4855004;54;21008;-36
2023/06/30 11:49:52;;;;;;;10.77;9.68;;;25.80;61.70;;;;;;4795823;58;21047;-36
2023/06/30 11:54:53;;;;;;;11.25;10.15;;;25.80;61.70;;;;;;4815692;54;21022;-36
2023/06/30 11:59:54;;;;;;;10.32;9.32;;;25.80;61.70;;;;;;4800914;54;21071;-37
2023/06/30 12:04:54;;;;;;;10.60;9.50;;;25.90;61.70;;;;;;4812909;54;21079;-37
2023/06/30 12:10:03;;;;;;;10.40;9.25;;;25.80;61.70;;;;;;4823880;54;21102;-37
2023/06/30 12:15:07;;;;;;;10.90;9.80;;;25.80;61.80;;;;;;4858809;54;21508;-38
2023/06/30 12:20:10;;;;;;;10.43;9.43;;;25.80;61.70;;;;;;4829214;54;21485;-37
2023/06/30 12:25:11;;;;;;;11.18;9.52;;;25.90;61.90;;;;;;4846799;54;20991;-38
2023/06/30 12:30:17;;;;;;;10.55;9.55;;;25.90;61.80;;;;;;4817287;54;21460;-37
2023/06/30 12:35:37;;;;;;;11.80;10.07;;;25.90;61.80;;;;;;4844582;54;21501;-37
2023/06/30 12:40:38;;;;;;;11.32;10.15;;;25.90;61.80;;;;;;4796672;58;20998;-38
2023/06/30 12:45:39;;;;;;;11.38;10.13;;;25.90;61.90;;;;;;4822700;54;21078;-36
2023/06/30 12:50:40;;;;;;;11.15;10.15;;;25.90;61.80;;;;;;4834915;54;21561;-34
2023/06/30 12:55:41;;;;;;;11.12;10.02;;;25.90;61.80;;;;;;4823517;54;21580;-37
2023/06/30 13:00:42;;;;;;;11.73;10.55;;;25.90;61.80;;;;;;4796067;58;21332;-38
2023/06/30 13:05:42;;;;;;;11.68;9.77;;;25.90;61.90;;;;;;4839758;53;21442;-33
2023/06/30 13:10:43;;;;;;;12.05;10.85;;;25.90;62.10;;;;;;4795345;58;20982;-38
2023/06/30 13:15:44;;;;;;;11.20;10.10;;;25.90;61.80;;;;;;4856575;54;21010;-38
2023/06/30 13:20:45;;;;;;;11.50;10.30;;;25.90;61.80;;;;;;4815505;54;21047;-39
2023/06/30 13:25:46;;;;;;;9.80;8.80;;;25.90;61.80;;;;;;4797123;55;21007;-37
2023/06/30 13:30:46;;;;;;;11.73;10.63;;;25.90;61.80;;;;;;4795507;58;21094;-39
2023/06/30 13:35:56;;;;;;;11.05;10.00;;;25.90;61.90;;;;;;4862204;54;21074;-36
2023/06/30 13:40:57;;;;;;;11.63;10.45;;;25.90;61.90;;;;;;4870083;54;21553;-37
2023/06/30 13:45:59;;;;;;;11.20;10.10;;;25.90;62.00;;;;;;4832340;54;21082;-36
2023/06/30 13:51:00;;;;;;;11.80;10.70;;;25.90;62.00;;;;;;4829862;54;21030;-39
2023/06/30 13:56:01;;;;;;;12.57;11.02;;;25.90;61.90;;;;;;4796441;58;21493;-38
2023/06/30 14:01:02;;;;;;;12.35;11.15;;;25.90;61.90;;;;;;4859059;54;21499;-39
2023/06/30 14:06:03;;;;;;;12.35;11.05;;;25.90;62.00;;;;;;4796003;58;21005;-39
2023/06/30 14:11:03;;;;;;;12.02;10.75;;;25.90;62.00;;;;;;4833025;54;21497;-36
2023/06/30 14:16:07;;;;;;;11.75;10.65;;;25.90;62.10;;;;;;4807678;54;21030;-38
2023/06/30 14:21:08;;;;;;;11.70;10.60;;;25.90;62.00;;;;;;4816373;54;21450;-39
2023/06/30 14:26:09;;;;;;;11.38;10.27;;;25.90;62.00;;;;;;4828556;54;21063;-33
2023/06/30 14:31:10;;;;;;;11.43;10.25;;;25.90;62.00;;;;;;4813946;54;21007;-37
2023/06/30 14:36:11;;;;;;;11.73;10.63;;;25.90;62.00;;;;;;4848006;54;21030;-38
2023/06/30 14:41:11;;;;;;;11.63;10.52;;;25.90;62.00;;;;;;4805231;54;21128;-38
2023/06/30 14:46:12;;;;;;;11.75;10.63;;;25.90;62.00;;;;;;4811979;54;20995;-34
2023/06/30 14:51:13;;;;;;;12.30;11.00;;;25.90;62.00;;;;;;4795196;58;21486;-37
2023/06/30 14:56:14;;;;;;;11.98;10.88;;;26.00;62.10;;;;;;4858846;54;21042;-37
2023/06/30 15:01:15;;;;;;;11.82;10.73;;;25.90;62.00;;;;;;4864916;54;21553;-39
2023/06/30 15:06:16;;;;;;;11.90;10.75;;;25.90;62.00;;;;;;4827160;54;21059;-37
2023/06/30 15:11:18;;;;;;;12.40;11.20;;;26.00;62.10;;;;;;4836302;54;21082;-39
2023/06/30 15:16:19;;;;;;;11.82;10.63;;;25.90;62.00;;;;;;4796279;58;21103;-35
2023/06/30 15:21:20;;;;;;;12.18;10.98;;;25.90;62.00;;;;;;4815483;54;21576;-38
2023/06/30 15:26:21;;;;;;;12.52;11.30;;;26.00;62.00;;;;;;4812046;54;21018;-39
2023/06/30 15:31:22;;;;;;;11.60;10.50;;;26.00;62.10;;;;;;4808342;54;21524;-36
2023/06/30 15:36:22;;;;;;;12.43;11.15;;;26.00;62.10;;;;;;4849949;54;21107;-37
2023/06/30 15:41:23;;;;;;;11.80;10.60;;;26.00;62.10;;;;;;4857119;54;21513;-37
2023/06/30 15:46:24;;;;;;;12.95;11.65;;;26.00;62.10;;;;;;4809734;54;21070;-37
2023/06/30 15:51:25;;;;;;;11.95;10.77;;;26.00;62.10;;;;;;4856347;54;21035;-33
2023/06/30 15:56:26;;;;;;;12.55;11.35;;;26.00;62.10;;;;;;4796505;54;21145;-38
2023/06/30 16:01:27;;;;;;;11.75;10.60;;;26.00;62.10;;;;;;4846347;53;21115;-37
2023/06/30 16:06:28;;;;;;;12.37;11.15;;;26.00;62.20;;;;;;4805872;54;21086;-37
2023/06/30 16:11:29;;;;;;;12.75;11.45;;;26.00;62.10;;;;;;4919418;54;21015;-36
2023/06/30 16:16:29;;;;;;;12.18;10.98;;;26.00;62.10;;;;;;4887588;54;21446;-35
2023/06/30 16:21:31;;;;;;;12.05;10.85;;;26.00;62.10;;;;;;4854813;54;21002;-38
2023/06/30 16:26:32;;;;;;;12.60;11.40;;;26.00;62.10;;;;;;4821685;54;21477;-38
2023/06/30 16:31:32;;;;;;;12.35;11.12;;;25.90;62.10;;;;;;4803281;54;21015;-37
2023/06/30 16:36:33;;;;;;;11.12;10.02;;;26.00;62.10;;;;;;4795590;55;21513;-38
2023/06/30 16:41:34;;;;;;;12.05;10.95;;;26.00;62.20;;;;;;4812949;54;21056;-37
2023/06/30 16:46:35;;;;;;;12.52;11.32;;;26.00;62.10;;;;;;4843845;54;21054;-37
2023/06/30 16:51:38;;;;;;;12.35;11.05;;;26.00;62.10;;;;;;4851975;54;21470;-38
2023/06/30 16:56:39;;;;;;;12.45;11.15;;;26.00;62.10;;;;;;5000816;54;21581;-38
2023/06/30 17:01:40;;;;;;;12.40;11.18;;;26.00;62.20;;;;;;4796315;58;21018;-38
2023/06/30 17:06:40;;;;;;;12.30;11.10;;;26.00;62.30;;;;;;4901826;54;21338;-35
2023/06/30 17:11:41;;;;;;;11.40;10.30;;;26.00;62.30;;;;;;4841945;54;21006;-37
2023/06/30 17:16:42;;;;;;;12.48;11.27;;;26.00;62.30;;;;;;4833528;54;21020;-38
2023/06/30 17:21:43;;;;;;;13.48;12.10;;;26.00;62.20;;;;;;4830076;54;20995;-36
2023/06/30 17:26:44;;;;;;;11.60;10.50;;;26.00;62.20;;;;;;4826650;54;21497;-36
2023/06/30 17:31:45;;;;;;;11.63;10.57;;;26.00;62.30;;;;;;4855795;54;21090;-36
2023/06/30 17:36:45;;;;;;;11.65;10.52;;;26.00;62.20;;;;;;4860156;54;21047;-38
2023/06/30 17:41:46;;;;;;;12.10;10.90;;;26.00;62.30;;;;;;4809537;54;21015;-39
2023/06/30 17:46:47;;;;;;;12.15;11.02;;;26.00;62.30;;;;;;4801382;54;21015;-38
2023/06/30 17:51:49;;;;;;;12.07;10.88;;;26.00;62.30;;;;;;4795282;58;21169;-36
2023/06/30 17:56:50;;;;;;;11.45;10.35;;;26.00;62.30;;;;;;4823022;54;21505;-37
2023/06/30 18:01:51;;;;;;;12.13;10.93;;;26.00;62.30;;;;;;4827907;54;20999;-38
2023/06/30 18:07:18;;;;;;;11.77;10.77;;;26.00;62.40;;;;;;4844204;54;21117;-37
2023/06/30 18:12:19;;;;;;;12.10;11.00;;;26.00;62.40;;;;;;5029312;54;21477;-40
2023/06/30 18:17:21;;;;;;;11.65;10.45;;;26.00;62.40;;;;;;4875976;54;21075;-34
2023/06/30 18:22:23;;;;;;;12.45;11.25;;;26.00;62.40;;;;;;4836667;54;21457;-38
2023/06/30 18:27:24;;;;;;;11.55;10.45;;;26.00;62.40;;;;;;4796269;58;21529;-35
2023/06/30 18:32:25;;;;;;;11.80;10.60;;;26.00;62.40;;;;;;4943802;54;21079;-38
2023/06/30 18:37:26;;;;;;;12.27;11.07;;;26.00;62.40;;;;;;4840840;54;21581;-37
2023/06/30 18:42:26;;;;;;;12.20;11.00;;;26.00;62.40;;;;;;4796162;58;21007;-38
2023/06/30 18:47:27;;;;;;;11.50;10.40;;;26.00;62.50;;;;;;4819560;54;21518;-37
2023/06/30 18:52:29;;;;;;;11.25;10.15;;;26.00;62.50;;;;;;4912252;53;21018;-38
2023/06/30 18:57:33;;;;;;;12.07;10.88;;;26.00;62.50;;;;;;4823794;54;21469;-38
2023/06/30 19:02:34;;;;;;;12.02;10.82;;;26.00;62.50;;;;;;4796270;55;21525;-30
2023/06/30 19:07:36;;;;;;;11.85;10.65;;;26.00;62.60;;;;;;4860852;54;21139;-36
2023/06/30 19:12:37;;;;;;;12.32;11.12;;;26.00;62.60;;;;;;4804100;54;21027;-37
2023/06/30 19:17:37;;;;;;;12.63;11.40;;;26.00;62.60;;;;;;4796461;58;21083;-37
2023/06/30 19:22:38;;;;;;;12.93;11.65;;;26.00;62.60;;;;;;4866078;54;21194;-36
2023/06/30 19:27:39;;;;;;;12.77;11.48;;;26.00;62.60;;;;;;4837837;54;21070;-35
2023/06/30 19:32:40;;;;;;;12.55;11.25;;;26.00;62.70;;;;;;4808950;54;21465;-38
2023/06/30 19:37:41;;;;;;;13.85;12.45;;;26.00;62.70;;;;;;4810536;54;21134;-37
2023/06/30 19:42:42;;;;;;;14.35;12.15;;;26.00;62.70;;;;;;4827848;54;21030;-38
2023/06/30 19:47:44;;;;;;;12.48;11.23;;;26.00;62.70;;;;;;4808305;54;21035;-37
2023/06/30 19:52:47;;;;;;;13.10;11.55;;;26.00;62.80;;;;;;4915726;54;21114;-35
2023/06/30 19:57:48;;;;;;;14.73;12.43;;;26.00;62.70;;;;;;4821036;54;21461;-37
2023/06/30 20:02:49;;;;;;;13.20;11.63;;;26.00;62.80;;;;;;4830625;54;21003;-31
2023/06/30 20:07:50;;;;;;;13.75;12.35;;;26.00;62.80;;;;;;4925999;54;21383;-36
2023/06/30 20:12:51;;;;;;;13.75;12.35;;;26.00;62.80;;;;;;4830755;54;21051;-33
2023/06/30 20:17:55;;;;;;;16.20;12.77;;;26.00;62.90;;;;;;4830639;54;21067;-36
2023/06/30 20:22:56;;;;;;;14.32;12.43;;;26.00;62.90;;;;;;4870474;54;21047;-35
2023/06/30 20:27:57;;;;;;;16.15;12.40;;;26.00;62.90;;;;;;4835253;53;21557;-37
2023/06/30 20:32:58;;;;;;;13.75;12.15;;;26.00;63.00;;;;;;4867803;54;21023;-36
2023/06/30 20:37:58;;;;;;;14.20;12.55;;;26.00;63.00;;;;;;4856178;54;21099;-37
2023/06/30 20:42:59;;;;;;;13.00;11.68;;;26.00;63.00;;;;;;4854510;54;21442;-38
2023/06/30 20:48:00;;;;;;;13.55;11.73;;;26.00;63.00;;;;;;4832785;54;21002;-37
2023/06/30 20:53:01;;;;;;;13.75;12.25;;;26.00;63.10;;;;;;4805339;54;21501;-38
2023/06/30 20:58:02;;;;;;;13.98;11.98;;;26.00;63.10;;;;;;4836717;54;20991;-37
2023/06/30 21:03:03;;;;;;;13.30;11.65;;;26.00;63.20;;;;;;4884463;54;21012;-40
2023/06/30 21:08:04;;;;;;;13.98;12.48;;;26.00;63.00;;;;;;4840513;54;21023;-37
2023/06/30 21:13:04;;;;;;;13.27;11.43;;;26.00;63.30;;;;;;4815781;54;21023;-35
2023/06/30 21:18:06;;;;;;;13.57;12.10;;;26.00;63.30;;;;;;4828099;54;21145;-34
2023/06/30 21:23:09;;;;;;;14.18;12.50;;;26.00;63.30;;;;;;4820840;54;21615;-35
2023/06/30 21:28:10;;;;;;;12.60;11.30;;;26.00;63.30;;;;;;4796526;58;21503;-33
2023/06/30 21:33:11;;;;;;;14.05;12.60;;;26.00;63.30;;;;;;4847682;54;21059;-36
2023/06/30 21:38:11;;;;;;;13.10;11.73;;;26.00;63.30;;;;;;4868857;53;20984;-38
2023/06/30 21:43:12;;;;;;;14.95;12.25;;;26.00;63.30;;;;;;4834890;54;21003;-37
2023/06/30 21:48:13;;;;;;;13.48;12.20;;;25.90;63.30;;;;;;4858208;54;21018;-36
2023/06/30 21:53:14;;;;;;;13.00;11.80;;;26.00;63.30;;;;;;4835238;54;20999;-35
2023/06/30 21:58:15;;;;;;;12.70;11.40;;;25.90;63.30;;;;;;4796503;58;20983;-37
2023/06/30 22:03:15;;;;;;;13.38;11.50;;;25.90;63.30;;;;;;4801978;54;21034;-38
2023/06/30 22:08:16;;;;;;;12.15;10.85;;;25.90;63.30;;;;;;4903171;54;21007;-38
2023/06/30 22:13:17;;;;;;;13.00;11.68;;;25.90;63.50;;;;;;4861002;54;21544;-40
2023/06/30 22:18:18;;;;;;;13.00;11.70;;;25.90;63.30;;;;;;4905433;54;21019;-37
2023/06/30 22:23:19;;;;;;;13.40;12.05;;;25.90;63.30;;;;;;4817061;54;20999;-39
2023/06/30 22:28:20;;;;;;;11.23;10.13;;;25.90;63.30;;;;;;4801769;54;21485;-38
2023/06/30 22:33:21;;;;;;;12.43;10.90;;;25.90;63.40;;;;;;4816602;54;21483;-37
2023/06/30 22:38:21;;;;;;;11.77;10.57;;;25.90;63.40;;;;;;4953799;54;21521;-37
2023/06/30 22:43:22;;;;;;;11.95;10.75;;;25.90;63.40;;;;;;4849335;54;21011;-36
2023/06/30 22:48:23;;;;;;;13.02;11.23;;;25.90;63.50;;;;;;4804050;54;21461;-35
2023/06/30 22:53:24;;;;;;;12.52;11.23;;;25.90;63.40;;;;;;4840701;54;21404;-35
2023/06/30 22:58:25;;;;;;;11.45;10.25;;;25.90;63.40;;;;;;4889873;54;21051;-30
2023/06/30 23:03:26;;;;;;;11.57;10.43;;;25.90;63.50;;;;;;4890992;54;21484;-37
2023/06/30 23:08:26;;;;;;;12.57;11.27;;;25.90;63.50;;;;;;4924107;54;21019;-37
2023/06/30 23:13:27;;;;;;;11.85;10.75;;;25.90;63.50;;;;;;4837191;54;21078;-36
2023/06/30 23:18:36;;;;;;;11.90;10.55;;;25.90;63.60;;;;;;4832115;54;21015;-34
2023/06/30 23:23:41;;;;;;;11.23;9.95;;;25.90;63.50;;;;;;4956278;54;21470;-35
2023/06/30 23:28:48;;;;;;;12.02;10.82;;;25.90;63.50;;;;;;4843914;54;21106;-36
2023/06/30 23:33:50;;;;;;;12.70;11.10;;;25.90;63.50;;;;;;5037874;54;22589;-35
2023/06/30 23:38:51;;;;;;;11.60;10.43;;;25.90;63.50;;;;;;4972970;54;21628;-37
2023/06/30 23:43:53;;;;;;;11.23;10.18;;;25.90;63.50;;;;;;4843770;54;21066;-38
2023/06/30 23:48:53;;;;;;;11.57;10.48;;;25.90;63.60;;;;;;4826723;54;21082;-35
2023/06/30 23:53:54;;;;;;;11.73;10.60;;;25.90;63.50;;;;;;4832401;54;21015;-37
2023/06/30 23:58:56;;;;;;;10.60;9.57;;;25.90;63.60;;;;;;4859817;54;21023;-36
